sensor_id;sensor_type;location;lat;lon;timestamp;temperature;humidity
58933;DHT22;44716;51.022;6.818;2023-11-22T00:00:22;21.40;57.90
58933;DHT22;44716;51.022;6.818;2023-11-22T00:02:48;21.40;57.90
58933;DHT22;44716;51.022;6.818;2023-11-22T00:05:13;21.30;58.00
58933;DHT22;44716;51.022;6.818;2023-11-22T00:07:39;21.40;58.00
58933;DHT22;44716;51.022;6.818;2023-11-22T00:10:05;21.30;58.00
58933;DHT22;44716;51.022;6.818;2023-11-22T00:12:31;21.40;58.00
58933;DHT22;44716;51.022;6.818;2023-11-22T00:15:03;21.30;58.00
58933;DHT22;44716;51.022;6.818;2023-11-22T00:17:30;21.30;58.10
58933;DHT22;44716;51.022;6.818;2023-11-22T00:19:55;21.30;58.20
58933;DHT22;44716;51.022;6.818;2023-11-22T00:22:21;21.30;58.30
58933;DHT22;44716;51.022;6.818;2023-11-22T00:24:46;21.30;58.40
58933;DHT22;44716;51.022;6.818;2023-11-22T00:27:15;21.20;58.30
58933;DHT22;44716;51.022;6.818;2023-11-22T00:29:41;21.20;58.30
58933;DHT22;44716;51.022;6.818;2023-11-22T00:32:06;21.20;58.40
58933;DHT22;44716;51.022;6.818;2023-11-22T00:34:33;21.20;58.40
58933;DHT22;44716;51.022;6.818;2023-11-22T00:36:58;21.20;58.40
58933;DHT22;44716;51.022;6.818;2023-11-22T00:39:24;21.20;58.40
58933;DHT22;44716;51.022;6.818;2023-11-22T00:41:49;21.20;58.50
58933;DHT22;44716;51.022;6.818;2023-11-22T00:44:15;21.20;58.50
58933;DHT22;44716;51.022;6.818;2023-11-22T00:46:40;21.20;58.50
58933;DHT22;44716;51.022;6.818;2023-11-22T00:49:07;21.10;58.50
58933;DHT22;44716;51.022;6.818;2023-11-22T00:51:33;21.10;58.50
58933;DHT22;44716;51.022;6.818;2023-11-22T00:53:59;21.20;58.50
58933;DHT22;44716;51.022;6.818;2023-11-22T00:56:25;21.10;58.50
58933;DHT22;44716;51.022;6.818;2023-11-22T00:58:50;21.10;58.50
58933;DHT22;44716;51.022;6.818;2023-11-22T01:01:16;21.10;58.60
58933;DHT22;44716;51.022;6.818;2023-11-22T01:03:43;21.10;58.60
58933;DHT22;44716;51.022;6.818;2023-11-22T01:06:09;21.10;58.60
58933;DHT22;44716;51.022;6.818;2023-11-22T01:08:35;21.10;58.60
58933;DHT22;44716;51.022;6.818;2023-11-22T01:11:01;21.10;58.60
58933;DHT22;44716;51.022;6.818;2023-11-22T01:13:29;21.10;58.60
58933;DHT22;44716;51.022;6.818;2023-11-22T01:15:54;21.10;58.60
58933;DHT22;44716;51.022;6.818;2023-11-22T01:18:20;21.10;58.70
58933;DHT22;44716;51.022;6.818;2023-11-22T01:20:45;21.00;58.60
58933;DHT22;44716;51.022;6.818;2023-11-22T01:23:11;21.00;58.70
58933;DHT22;44716;51.022;6.818;2023-11-22T01:25:37;21.00;58.70
58933;DHT22;44716;51.022;6.818;2023-11-22T01:28:02;21.00;58.70
58933;DHT22;44716;51.022;6.818;2023-11-22T01:30:28;21.00;58.80
58933;DHT22;44716;51.022;6.818;2023-11-22T01:32:54;21.00;58.80
58933;DHT22;44716;51.022;6.818;2023-11-22T01:35:20;21.00;58.80
58933;DHT22;44716;51.022;6.818;2023-11-22T01:37:46;21.00;58.80
58933;DHT22;44716;51.022;6.818;2023-11-22T01:40:12;20.90;58.80
58933;DHT22;44716;51.022;6.818;2023-11-22T01:42:38;21.00;58.80
58933;DHT22;44716;51.022;6.818;2023-11-22T01:45:06;20.90;58.80
58933;DHT22;44716;51.022;6.818;2023-11-22T01:47:32;20.90;58.80
58933;DHT22;44716;51.022;6.818;2023-11-22T01:49:57;20.90;58.90
58933;DHT22;44716;51.022;6.818;2023-11-22T01:52:23;20.90;58.90
58933;DHT22;44716;51.022;6.818;2023-11-22T01:54:48;20.90;59.00
58933;DHT22;44716;51.022;6.818;2023-11-22T01:57:14;20.90;59.00
58933;DHT22;44716;51.022;6.818;2023-11-22T01:59:39;20.90;59.00
58933;DHT22;44716;51.022;6.818;2023-11-22T02:02:05;20.90;59.00
58933;DHT22;44716;51.022;6.818;2023-11-22T02:04:31;20.80;59.00
58933;DHT22;44716;51.022;6.818;2023-11-22T02:06:57;20.80;59.00
58933;DHT22;44716;51.022;6.818;2023-11-22T02:09:22;20.80;59.00
58933;DHT22;44716;51.022;6.818;2023-11-22T02:11:48;20.80;59.00
58933;DHT22;44716;51.022;6.818;2023-11-22T02:14:14;20.80;59.00
58933;DHT22;44716;51.022;6.818;2023-11-22T02:16:40;20.80;59.00
58933;DHT22;44716;51.022;6.818;2023-11-22T02:19:06;20.80;59.00
58933;DHT22;44716;51.022;6.818;2023-11-22T02:21:32;20.80;59.00
58933;DHT22;44716;51.022;6.818;2023-11-22T02:23:58;20.80;59.10
58933;DHT22;44716;51.022;6.818;2023-11-22T02:26:24;20.80;59.10
58933;DHT22;44716;51.022;6.818;2023-11-22T02:28:50;20.80;59.10
58933;DHT22;44716;51.022;6.818;2023-11-22T02:31:16;20.80;59.70
58933;DHT22;44716;51.022;6.818;2023-11-22T02:33:41;20.80;59.10
58933;DHT22;44716;51.022;6.818;2023-11-22T02:36:07;20.80;59.10
58933;DHT22;44716;51.022;6.818;2023-11-22T02:38:33;20.80;59.10
58933;DHT22;44716;51.022;6.818;2023-11-22T02:41:01;20.80;59.10
58933;DHT22;44716;51.022;6.818;2023-11-22T02:43:26;20.80;59.10
58933;DHT22;44716;51.022;6.818;2023-11-22T02:45:52;20.80;59.00
58933;DHT22;44716;51.022;6.818;2023-11-22T02:48:17;20.80;59.10
58933;DHT22;44716;51.022;6.818;2023-11-22T02:50:43;20.80;59.10
58933;DHT22;44716;51.022;6.818;2023-11-22T02:53:09;20.80;59.10
58933;DHT22;44716;51.022;6.818;2023-11-22T02:55:35;20.80;59.10
58933;DHT22;44716;51.022;6.818;2023-11-22T02:58:00;20.70;59.00
58933;DHT22;44716;51.022;6.818;2023-11-22T03:00:27;20.70;59.10
58933;DHT22;44716;51.022;6.818;2023-11-22T03:02:54;20.70;59.10
58933;DHT22;44716;51.022;6.818;2023-11-22T03:05:21;20.70;59.20
58933;DHT22;44716;51.022;6.818;2023-11-22T03:07:47;20.70;59.20
58933;DHT22;44716;51.022;6.818;2023-11-22T03:10:12;20.70;59.10
58933;DHT22;44716;51.022;6.818;2023-11-22T03:12:38;20.70;59.20
58933;DHT22;44716;51.022;6.818;2023-11-22T03:15:04;20.70;59.20
58933;DHT22;44716;51.022;6.818;2023-11-22T03:17:29;20.70;59.20
58933;DHT22;44716;51.022;6.818;2023-11-22T03:19:55;20.70;59.20
58933;DHT22;44716;51.022;6.818;2023-11-22T03:22:22;20.60;59.20
58933;DHT22;44716;51.022;6.818;2023-11-22T03:24:49;20.60;59.20
58933;DHT22;44716;51.022;6.818;2023-11-22T03:27:14;20.70;59.20
58933;DHT22;44716;51.022;6.818;2023-11-22T03:29:40;20.60;59.20
58933;DHT22;44716;51.022;6.818;2023-11-22T03:32:06;20.60;59.20
58933;DHT22;44716;51.022;6.818;2023-11-22T03:34:31;20.60;59.20
58933;DHT22;44716;51.022;6.818;2023-11-22T03:36:57;20.60;59.20
58933;DHT22;44716;51.022;6.818;2023-11-22T03:39:22;20.60;59.30
58933;DHT22;44716;51.022;6.818;2023-11-22T03:41:48;20.60;59.20
58933;DHT22;44716;51.022;6.818;2023-11-22T03:44:13;20.60;59.30
58933;DHT22;44716;51.022;6.818;2023-11-22T03:46:39;20.60;59.30
58933;DHT22;44716;51.022;6.818;2023-11-22T03:49:05;20.60;59.30
58933;DHT22;44716;51.022;6.818;2023-11-22T03:51:37;20.60;59.30
58933;DHT22;44716;51.022;6.818;2023-11-22T03:54:03;20.60;59.20
58933;DHT22;44716;51.022;6.818;2023-11-22T03:56:28;20.60;59.30
58933;DHT22;44716;51.022;6.818;2023-11-22T03:58:54;20.60;59.20
58933;DHT22;44716;51.022;6.818;2023-11-22T04:01:20;20.60;59.20
58933;DHT22;44716;51.022;6.818;2023-11-22T04:03:48;20.60;59.20
58933;DHT22;44716;51.022;6.818;2023-11-22T04:06:16;20.50;59.20
58933;DHT22;44716;51.022;6.818;2023-11-22T04:08:43;20.50;59.20
58933;DHT22;44716;51.022;6.818;2023-11-22T04:11:09;20.60;59.30
58933;DHT22;44716;51.022;6.818;2023-11-22T04:13:35;20.60;59.30
58933;DHT22;44716;51.022;6.818;2023-11-22T04:16:01;20.50;59.30
58933;DHT22;44716;51.022;6.818;2023-11-22T04:18:26;20.60;59.20
58933;DHT22;44716;51.022;6.818;2023-11-22T04:20:52;20.60;59.30
58933;DHT22;44716;51.022;6.818;2023-11-22T04:23:18;20.50;59.30
58933;DHT22;44716;51.022;6.818;2023-11-22T04:25:43;20.50;59.30
58933;DHT22;44716;51.022;6.818;2023-11-22T04:28:09;20.50;59.30
58933;DHT22;44716;51.022;6.818;2023-11-22T04:30:35;20.50;59.30
58933;DHT22;44716;51.022;6.818;2023-11-22T04:33:01;20.50;59.30
58933;DHT22;44716;51.022;6.818;2023-11-22T04:35:27;20.50;59.30
58933;DHT22;44716;51.022;6.818;2023-11-22T04:37:53;20.50;59.30
58933;DHT22;44716;51.022;6.818;2023-11-22T04:40:20;20.50;59.30
58933;DHT22;44716;51.022;6.818;2023-11-22T04:42:46;20.50;59.30
58933;DHT22;44716;51.022;6.818;2023-11-22T04:45:12;20.50;59.20
58933;DHT22;44716;51.022;6.818;2023-11-22T04:47:38;20.50;59.20
58933;DHT22;44716;51.022;6.818;2023-11-22T04:50:04;20.50;59.20
58933;DHT22;44716;51.022;6.818;2023-11-22T04:52:30;20.50;59.30
58933;DHT22;44716;51.022;6.818;2023-11-22T04:54:56;20.40;59.30
58933;DHT22;44716;51.022;6.818;2023-11-22T04:57:21;20.50;59.30
58933;DHT22;44716;51.022;6.818;2023-11-22T04:59:47;20.40;59.30
58933;DHT22;44716;51.022;6.818;2023-11-22T05:02:12;20.50;59.30
58933;DHT22;44716;51.022;6.818;2023-11-22T05:04:38;20.50;59.30
58933;DHT22;44716;51.022;6.818;2023-11-22T05:07:03;20.50;59.20
58933;DHT22;44716;51.022;6.818;2023-11-22T05:09:29;20.50;59.20
58933;DHT22;44716;51.022;6.818;2023-11-22T05:11:54;20.40;59.20
58933;DHT22;44716;51.022;6.818;2023-11-22T05:14:20;20.50;59.30
58933;DHT22;44716;51.022;6.818;2023-11-22T05:16:46;20.50;59.30
58933;DHT22;44716;51.022;6.818;2023-11-22T05:19:12;20.50;59.30
58933;DHT22;44716;51.022;6.818;2023-11-22T05:21:37;20.40;59.20
58933;DHT22;44716;51.022;6.818;2023-11-22T05:24:03;20.40;59.20
58933;DHT22;44716;51.022;6.818;2023-11-22T05:26:28;20.40;59.20
58933;DHT22;44716;51.022;6.818;2023-11-22T05:28:54;20.40;59.30
58933;DHT22;44716;51.022;6.818;2023-11-22T05:31:20;20.40;59.30
58933;DHT22;44716;51.022;6.818;2023-11-22T05:33:46;20.40;59.30
58933;DHT22;44716;51.022;6.818;2023-11-22T05:36:11;20.40;59.30
58933;DHT22;44716;51.022;6.818;2023-11-22T05:38:37;20.40;59.30
58933;DHT22;44716;51.022;6.818;2023-11-22T05:41:03;20.40;59.30
58933;DHT22;44716;51.022;6.818;2023-11-22T05:43:29;20.30;59.30
58933;DHT22;44716;51.022;6.818;2023-11-22T05:45:54;20.40;59.30
58933;DHT22;44716;51.022;6.818;2023-11-22T05:48:20;20.30;59.30
58933;DHT22;44716;51.022;6.818;2023-11-22T05:50:46;20.30;59.30
58933;DHT22;44716;51.022;6.818;2023-11-22T05:53:12;20.30;59.30
58933;DHT22;44716;51.022;6.818;2023-11-22T05:55:37;20.40;59.30
58933;DHT22;44716;51.022;6.818;2023-11-22T05:58:03;20.40;59.20
58933;DHT22;44716;51.022;6.818;2023-11-22T06:00:29;20.40;59.30
58933;DHT22;44716;51.022;6.818;2023-11-22T06:02:54;20.40;59.20
58933;DHT22;44716;51.022;6.818;2023-11-22T06:05:21;20.40;59.30
58933;DHT22;44716;51.022;6.818;2023-11-22T06:07:46;20.30;59.30
58933;DHT22;44716;51.022;6.818;2023-11-22T06:10:13;20.30;59.20
58933;DHT22;44716;51.022;6.818;2023-11-22T06:12:40;20.30;59.30
58933;DHT22;44716;51.022;6.818;2023-11-22T06:15:05;20.30;59.30
58933;DHT22;44716;51.022;6.818;2023-11-22T06:17:31;20.30;59.40
58933;DHT22;44716;51.022;6.818;2023-11-22T06:19:56;20.30;59.40
58933;DHT22;44716;51.022;6.818;2023-11-22T06:22:22;20.30;59.40
58933;DHT22;44716;51.022;6.818;2023-11-22T06:24:47;20.20;59.30
58933;DHT22;44716;51.022;6.818;2023-11-22T06:27:13;20.20;59.40
58933;DHT22;44716;51.022;6.818;2023-11-22T06:29:40;20.20;59.40
58933;DHT22;44716;51.022;6.818;2023-11-22T06:32:08;20.20;59.40
58933;DHT22;44716;51.022;6.818;2023-11-22T06:34:34;20.20;59.50
58933;DHT22;44716;51.022;6.818;2023-11-22T06:37:01;20.30;59.50
58933;DHT22;44716;51.022;6.818;2023-11-22T06:39:27;20.30;59.40
58933;DHT22;44716;51.022;6.818;2023-11-22T06:41:52;20.30;59.40
58933;DHT22;44716;51.022;6.818;2023-11-22T06:44:18;20.30;59.40
58933;DHT22;44716;51.022;6.818;2023-11-22T06:46:43;20.20;59.40
58933;DHT22;44716;51.022;6.818;2023-11-22T06:49:09;20.30;59.50
58933;DHT22;44716;51.022;6.818;2023-11-22T06:51:34;20.20;59.50
58933;DHT22;44716;51.022;6.818;2023-11-22T06:54:00;20.20;59.60
58933;DHT22;44716;51.022;6.818;2023-11-22T06:56:26;20.20;59.70
58933;DHT22;44716;51.022;6.818;2023-11-22T06:58:51;20.20;59.70
58933;DHT22;44716;51.022;6.818;2023-11-22T07:01:17;20.20;59.70
58933;DHT22;44716;51.022;6.818;2023-11-22T07:03:42;20.20;59.90
58933;DHT22;44716;51.022;6.818;2023-11-22T07:06:08;20.30;60.10
58933;DHT22;44716;51.022;6.818;2023-11-22T07:08:34;20.30;60.10
58933;DHT22;44716;51.022;6.818;2023-11-22T07:11:00;20.30;60.00
58933;DHT22;44716;51.022;6.818;2023-11-22T07:13:25;20.30;60.00
58933;DHT22;44716;51.022;6.818;2023-11-22T07:15:52;20.40;60.00
58933;DHT22;44716;51.022;6.818;2023-11-22T07:18:19;20.40;59.90
58933;DHT22;44716;51.022;6.818;2023-11-22T07:20:44;20.40;60.00
58933;DHT22;44716;51.022;6.818;2023-11-22T07:23:10;20.50;60.10
58933;DHT22;44716;51.022;6.818;2023-11-22T07:25:39;20.60;59.90
58933;DHT22;44716;51.022;6.818;2023-11-22T07:28:04;20.60;59.60
58933;DHT22;44716;51.022;6.818;2023-11-22T07:30:30;20.60;59.70
58933;DHT22;44716;51.022;6.818;2023-11-22T07:32:58;20.70;59.90
58933;DHT22;44716;51.022;6.818;2023-11-22T07:35:26;20.70;59.80
58933;DHT22;44716;51.022;6.818;2023-11-22T07:37:53;20.70;59.50
58933;DHT22;44716;51.022;6.818;2023-11-22T07:40:19;20.70;59.60
58933;DHT22;44716;51.022;6.818;2023-11-22T07:42:47;20.80;59.50
58933;DHT22;44716;51.022;6.818;2023-11-22T07:45:13;20.80;59.40
58933;DHT22;44716;51.022;6.818;2023-11-22T07:47:38;20.80;59.40
58933;DHT22;44716;51.022;6.818;2023-11-22T07:50:09;20.80;59.40
58933;DHT22;44716;51.022;6.818;2023-11-22T07:52:34;20.80;59.30
58933;DHT22;44716;51.022;6.818;2023-11-22T07:55:00;20.80;59.30
58933;DHT22;44716;51.022;6.818;2023-11-22T07:57:25;20.80;59.30
58933;DHT22;44716;51.022;6.818;2023-11-22T07:59:51;20.80;59.40
58933;DHT22;44716;51.022;6.818;2023-11-22T08:02:21;20.80;59.80
58933;DHT22;44716;51.022;6.818;2023-11-22T08:04:46;20.80;59.40
58933;DHT22;44716;51.022;6.818;2023-11-22T08:07:13;20.90;59.40
58933;DHT22;44716;51.022;6.818;2023-11-22T08:09:42;20.80;59.20
58933;DHT22;44716;51.022;6.818;2023-11-22T08:12:11;20.80;59.60
58933;DHT22;44716;51.022;6.818;2023-11-22T08:14:38;20.80;59.30
58933;DHT22;44716;51.022;6.818;2023-11-22T08:17:04;20.80;59.80
58933;DHT22;44716;51.022;6.818;2023-11-22T08:19:31;20.80;59.50
58933;DHT22;44716;51.022;6.818;2023-11-22T08:21:56;20.80;59.30
58933;DHT22;44716;51.022;6.818;2023-11-22T08:24:22;20.90;60.00
58933;DHT22;44716;51.022;6.818;2023-11-22T08:26:47;20.90;59.20
58933;DHT22;44716;51.022;6.818;2023-11-22T08:29:13;20.80;59.30
58933;DHT22;44716;51.022;6.818;2023-11-22T08:31:40;20.80;59.30
58933;DHT22;44716;51.022;6.818;2023-11-22T08:34:05;20.80;59.30
58933;DHT22;44716;51.022;6.818;2023-11-22T08:36:32;20.80;59.20
58933;DHT22;44716;51.022;6.818;2023-11-22T08:39:00;20.80;59.40
58933;DHT22;44716;51.022;6.818;2023-11-22T08:41:26;20.80;59.40
58933;DHT22;44716;51.022;6.818;2023-11-22T08:43:52;20.80;59.30
58933;DHT22;44716;51.022;6.818;2023-11-22T08:46:18;20.80;59.40
58933;DHT22;44716;51.022;6.818;2023-11-22T08:48:43;20.80;59.40
58933;DHT22;44716;51.022;6.818;2023-11-22T08:51:09;20.80;59.30
58933;DHT22;44716;51.022;6.818;2023-11-22T08:53:35;20.80;59.30
58933;DHT22;44716;51.022;6.818;2023-11-22T08:56:01;20.80;59.30
58933;DHT22;44716;51.022;6.818;2023-11-22T08:58:30;20.80;59.30
58933;DHT22;44716;51.022;6.818;2023-11-22T09:00:55;20.80;59.30
58933;DHT22;44716;51.022;6.818;2023-11-22T09:03:23;20.80;59.20
58933;DHT22;44716;51.022;6.818;2023-11-22T09:05:49;20.80;59.30
58933;DHT22;44716;51.022;6.818;2023-11-22T09:08:14;20.80;59.40
58933;DHT22;44716;51.022;6.818;2023-11-22T09:10:41;20.80;59.40
58933;DHT22;44716;51.022;6.818;2023-11-22T09:13:07;20.80;59.30
58933;DHT22;44716;51.022;6.818;2023-11-22T09:15:33;20.80;59.30
58933;DHT22;44716;51.022;6.818;2023-11-22T09:18:00;20.80;59.30
58933;DHT22;44716;51.022;6.818;2023-11-22T09:20:26;20.80;59.30
58933;DHT22;44716;51.022;6.818;2023-11-22T09:22:52;20.80;59.20
58933;DHT22;44716;51.022;6.818;2023-11-22T09:25:19;20.80;59.30
58933;DHT22;44716;51.022;6.818;2023-11-22T09:27:45;20.80;59.30
58933;DHT22;44716;51.022;6.818;2023-11-22T09:30:14;20.80;59.40
58933;DHT22;44716;51.022;6.818;2023-11-22T09:32:45;20.80;59.30
58933;DHT22;44716;51.022;6.818;2023-11-22T09:35:12;20.80;59.30
58933;DHT22;44716;51.022;6.818;2023-11-22T09:37:39;20.80;59.20
58933;DHT22;44716;51.022;6.818;2023-11-22T09:40:07;20.80;59.20
58933;DHT22;44716;51.022;6.818;2023-11-22T09:42:34;20.80;59.20
58933;DHT22;44716;51.022;6.818;2023-11-22T09:45:00;20.80;59.20
58933;DHT22;44716;51.022;6.818;2023-11-22T09:47:26;20.70;59.20
58933;DHT22;44716;51.022;6.818;2023-11-22T09:49:52;20.70;59.20
58933;DHT22;44716;51.022;6.818;2023-11-22T09:52:20;20.80;59.20
58933;DHT22;44716;51.022;6.818;2023-11-22T09:54:48;20.80;59.10
58933;DHT22;44716;51.022;6.818;2023-11-22T09:57:16;20.70;59.10
58933;DHT22;44716;51.022;6.818;2023-11-22T09:59:42;20.70;59.10
58933;DHT22;44716;51.022;6.818;2023-11-22T10:02:08;20.70;59.10
58933;DHT22;44716;51.022;6.818;2023-11-22T10:04:34;20.70;59.10
58933;DHT22;44716;51.022;6.818;2023-11-22T10:07:00;20.70;59.20
58933;DHT22;44716;51.022;6.818;2023-11-22T10:09:25;20.70;59.10
58933;DHT22;44716;51.022;6.818;2023-11-22T10:11:59;20.70;59.10
58933;DHT22;44716;51.022;6.818;2023-11-22T10:14:26;20.70;59.00
58933;DHT22;44716;51.022;6.818;2023-11-22T10:17:00;20.70;59.10
58933;DHT22;44716;51.022;6.818;2023-11-22T10:19:26;20.70;59.20
58933;DHT22;44716;51.022;6.818;2023-11-22T10:22:08;20.70;59.10
58933;DHT22;44716;51.022;6.818;2023-11-22T10:24:34;20.70;59.10
58933;DHT22;44716;51.022;6.818;2023-11-22T10:27:00;20.70;59.10
58933;DHT22;44716;51.022;6.818;2023-11-22T10:29:26;20.70;59.00
58933;DHT22;44716;51.022;6.818;2023-11-22T10:31:52;20.70;59.00
58933;DHT22;44716;51.022;6.818;2023-11-22T10:34:21;20.80;59.00
58933;DHT22;44716;51.022;6.818;2023-11-22T10:36:47;20.80;59.00
58933;DHT22;44716;51.022;6.818;2023-11-22T10:39:18;20.80;59.00
58933;DHT22;44716;51.022;6.818;2023-11-22T10:41:44;20.80;59.00
58933;DHT22;44716;51.022;6.818;2023-11-22T10:44:10;20.80;59.00
58933;DHT22;44716;51.022;6.818;2023-11-22T10:46:36;20.80;59.00
58933;DHT22;44716;51.022;6.818;2023-11-22T10:49:03;20.80;59.00
58933;DHT22;44716;51.022;6.818;2023-11-22T10:51:32;20.80;58.90
58933;DHT22;44716;51.022;6.818;2023-11-22T10:53:59;20.80;59.00
58933;DHT22;44716;51.022;6.818;2023-11-22T10:56:26;20.80;59.00
58933;DHT22;44716;51.022;6.818;2023-11-22T10:58:56;20.80;58.90
58933;DHT22;44716;51.022;6.818;2023-11-22T11:01:25;20.80;58.90
58933;DHT22;44716;51.022;6.818;2023-11-22T11:03:55;20.80;58.90
58933;DHT22;44716;51.022;6.818;2023-11-22T11:06:23;20.80;59.00
58933;DHT22;44716;51.022;6.818;2023-11-22T11:08:53;20.80;59.00
58933;DHT22;44716;51.022;6.818;2023-11-22T11:11:19;20.80;58.90
58933;DHT22;44716;51.022;6.818;2023-11-22T11:13:45;20.80;58.90
58933;DHT22;44716;51.022;6.818;2023-11-22T11:16:12;20.80;59.00
58933;DHT22;44716;51.022;6.818;2023-11-22T11:18:37;20.80;58.90
58933;DHT22;44716;51.022;6.818;2023-11-22T11:21:07;20.80;58.80
58933;DHT22;44716;51.022;6.818;2023-11-22T11:23:33;20.80;59.00
58933;DHT22;44716;51.022;6.818;2023-11-22T11:25:59;20.80;58.90
58933;DHT22;44716;51.022;6.818;2023-11-22T11:28:25;20.80;58.90
58933;DHT22;44716;51.022;6.818;2023-11-22T11:30:54;20.80;58.90
58933;DHT22;44716;51.022;6.818;2023-11-22T11:35:48;20.80;59.00
58933;DHT22;44716;51.022;6.818;2023-11-22T11:38:15;20.70;58.90
58933;DHT22;44716;51.022;6.818;2023-11-22T11:40:41;20.70;59.00
58933;DHT22;44716;51.022;6.818;2023-11-22T11:43:08;20.70;59.10
58933;DHT22;44716;51.022;6.818;2023-11-22T11:45:40;20.70;59.00
58933;DHT22;44716;51.022;6.818;2023-11-22T11:48:12;20.80;59.10
58933;DHT22;44716;51.022;6.818;2023-11-22T11:50:37;20.80;59.10
58933;DHT22;44716;51.022;6.818;2023-11-22T11:53:03;20.80;58.80
58933;DHT22;44716;51.022;6.818;2023-11-22T11:55:30;20.80;58.90
58933;DHT22;44716;51.022;6.818;2023-11-22T11:57:55;20.80;58.80
58933;DHT22;44716;51.022;6.818;2023-11-22T12:00:22;20.80;58.70
58933;DHT22;44716;51.022;6.818;2023-11-22T12:02:50;20.80;58.80
58933;DHT22;44716;51.022;6.818;2023-11-22T12:05:17;20.90;58.80
58933;DHT22;44716;51.022;6.818;2023-11-22T12:07:43;20.80;58.80
58933;DHT22;44716;51.022;6.818;2023-11-22T12:10:09;20.90;58.70
58933;DHT22;44716;51.022;6.818;2023-11-22T12:12:35;20.80;58.70
58933;DHT22;44716;51.022;6.818;2023-11-22T12:15:01;20.90;58.80
58933;DHT22;44716;51.022;6.818;2023-11-22T12:17:26;20.80;58.60
58933;DHT22;44716;51.022;6.818;2023-11-22T12:20:08;20.80;58.70
58933;DHT22;44716;51.022;6.818;2023-11-22T12:22:33;20.80;58.70
58933;DHT22;44716;51.022;6.818;2023-11-22T12:24:59;20.80;58.70
58933;DHT22;44716;51.022;6.818;2023-11-22T12:27:24;20.90;58.80
58933;DHT22;44716;51.022;6.818;2023-11-22T12:29:50;20.80;58.70
58933;DHT22;44716;51.022;6.818;2023-11-22T12:32:15;20.80;58.70
58933;DHT22;44716;51.022;6.818;2023-11-22T12:34:43;20.80;58.70
58933;DHT22;44716;51.022;6.818;2023-11-22T12:37:08;20.80;58.70
58933;DHT22;44716;51.022;6.818;2023-11-22T12:39:35;20.90;58.60
58933;DHT22;44716;51.022;6.818;2023-11-22T12:42:02;20.80;58.60
58933;DHT22;44716;51.022;6.818;2023-11-22T12:44:28;20.90;58.70
58933;DHT22;44716;51.022;6.818;2023-11-22T12:46:53;20.80;58.70
58933;DHT22;44716;51.022;6.818;2023-11-22T12:49:23;20.80;58.70
58933;DHT22;44716;51.022;6.818;2023-11-22T12:51:52;20.80;58.80
58933;DHT22;44716;51.022;6.818;2023-11-22T12:54:18;20.90;58.70
58933;DHT22;44716;51.022;6.818;2023-11-22T12:56:49;20.80;58.70
58933;DHT22;44716;51.022;6.818;2023-11-22T12:59:16;20.80;58.70
58933;DHT22;44716;51.022;6.818;2023-11-22T13:01:41;20.80;58.70
58933;DHT22;44716;51.022;6.818;2023-11-22T13:04:08;20.80;58.60
58933;DHT22;44716;51.022;6.818;2023-11-22T13:06:33;20.80;58.60
58933;DHT22;44716;51.022;6.818;2023-11-22T13:08:59;20.80;58.70
58933;DHT22;44716;51.022;6.818;2023-11-22T13:11:24;20.80;58.60
58933;DHT22;44716;51.022;6.818;2023-11-22T13:13:51;20.90;58.60
58933;DHT22;44716;51.022;6.818;2023-11-22T13:16:16;20.90;58.60
58933;DHT22;44716;51.022;6.818;2023-11-22T13:18:42;20.90;58.50
58933;DHT22;44716;51.022;6.818;2023-11-22T13:21:07;20.90;58.60
58933;DHT22;44716;51.022;6.818;2023-11-22T13:23:33;20.90;58.60
58933;DHT22;44716;51.022;6.818;2023-11-22T13:25:59;21.00;58.60
58933;DHT22;44716;51.022;6.818;2023-11-22T13:28:24;21.00;58.60
58933;DHT22;44716;51.022;6.818;2023-11-22T13:30:51;21.00;58.60
58933;DHT22;44716;51.022;6.818;2023-11-22T13:33:16;21.00;58.60
58933;DHT22;44716;51.022;6.818;2023-11-22T13:35:42;21.00;58.50
58933;DHT22;44716;51.022;6.818;2023-11-22T13:38:07;21.00;58.50
58933;DHT22;44716;51.022;6.818;2023-11-22T13:40:36;21.00;58.70
58933;DHT22;44716;51.022;6.818;2023-11-22T13:43:04;21.00;58.70
58933;DHT22;44716;51.022;6.818;2023-11-22T13:45:30;21.00;58.70
58933;DHT22;44716;51.022;6.818;2023-11-22T13:47:55;21.00;58.60
58933;DHT22;44716;51.022;6.818;2023-11-22T13:50:32;21.00;58.60
58933;DHT22;44716;51.022;6.818;2023-11-22T13:52:57;21.00;58.50
58933;DHT22;44716;51.022;6.818;2023-11-22T13:55:24;21.00;58.50
58933;DHT22;44716;51.022;6.818;2023-11-22T13:57:50;20.90;58.50
58933;DHT22;44716;51.022;6.818;2023-11-22T14:00:16;21.00;58.40
58933;DHT22;44716;51.022;6.818;2023-11-22T14:02:45;21.00;58.30
58933;DHT22;44716;51.022;6.818;2023-11-22T14:05:11;20.90;58.90
58933;DHT22;44716;51.022;6.818;2023-11-22T14:07:37;20.90;58.20
58933;DHT22;44716;51.022;6.818;2023-11-22T14:10:03;21.00;58.20
58933;DHT22;44716;51.022;6.818;2023-11-22T14:12:32;20.90;57.80
58933;DHT22;44716;51.022;6.818;2023-11-22T14:14:58;20.90;57.80
58933;DHT22;44716;51.022;6.818;2023-11-22T14:17:23;20.90;57.90
58933;DHT22;44716;51.022;6.818;2023-11-22T14:19:49;20.90;57.90
58933;DHT22;44716;51.022;6.818;2023-11-22T14:22:15;20.90;58.20
58933;DHT22;44716;51.022;6.818;2023-11-22T14:24:42;20.90;58.60
58933;DHT22;44716;51.022;6.818;2023-11-22T14:27:08;21.00;58.70
58933;DHT22;44716;51.022;6.818;2023-11-22T14:29:35;21.00;58.20
58933;DHT22;44716;51.022;6.818;2023-11-22T14:32:00;21.10;58.10
58933;DHT22;44716;51.022;6.818;2023-11-22T14:34:26;21.10;57.90
58933;DHT22;44716;51.022;6.818;2023-11-22T14:36:52;21.20;57.70
58933;DHT22;44716;51.022;6.818;2023-11-22T14:39:18;21.20;57.60
58933;DHT22;44716;51.022;6.818;2023-11-22T14:41:44;21.20;57.50
58933;DHT22;44716;51.022;6.818;2023-11-22T14:44:10;21.30;57.50
58933;DHT22;44716;51.022;6.818;2023-11-22T14:46:36;21.30;57.40
58933;DHT22;44716;51.022;6.818;2023-11-22T14:49:02;21.30;57.30
58933;DHT22;44716;51.022;6.818;2023-11-22T14:51:28;21.40;57.20
58933;DHT22;44716;51.022;6.818;2023-11-22T14:53:54;21.50;57.00
58933;DHT22;44716;51.022;6.818;2023-11-22T14:56:19;21.50;56.80
58933;DHT22;44716;51.022;6.818;2023-11-22T14:58:45;21.50;56.80
58933;DHT22;44716;51.022;6.818;2023-11-22T15:01:18;21.60;56.60
58933;DHT22;44716;51.022;6.818;2023-11-22T15:03:43;21.60;56.60
58933;DHT22;44716;51.022;6.818;2023-11-22T15:06:10;21.70;56.50
58933;DHT22;44716;51.022;6.818;2023-11-22T15:08:35;21.70;56.30
58933;DHT22;44716;51.022;6.818;2023-11-22T15:11:01;21.70;56.20
58933;DHT22;44716;51.022;6.818;2023-11-22T15:13:26;21.80;56.10
58933;DHT22;44716;51.022;6.818;2023-11-22T15:15:53;21.80;55.90
58933;DHT22;44716;51.022;6.818;2023-11-22T15:18:18;21.80;56.50
58933;DHT22;44716;51.022;6.818;2023-11-22T15:20:44;21.90;55.80
58933;DHT22;44716;51.022;6.818;2023-11-22T15:23:09;22.00;55.70
58933;DHT22;44716;51.022;6.818;2023-11-22T15:25:35;22.00;55.90